Wurtland, Kentucky
Current Conditions -  °F | °C
As of 3:55 AM on Saturday 22 Nov 2014 (Local Time) from KDWU Reporting Station
Scattered Clouds Scattered Clouds  
Wind Chill: 15°   Ceiling: Unl
Heat Index: 21°   Visibility: 10mi
Dew Point: 14°   Wind: 5mph
Humidity: 74%   Direction: 140°SE
Pressure: 30.37"   Gusts: NA
Location:  38.5266°N, 82.9452°W
Report Text: KDWU 220855Z AUTO 14004KT 10SM SCT070 SCT090 M06/M10 A3037 RMK AO1 57014
Loading
Personal Weather Stations






























Interactive Weather Map New forecast layout! Learn more

10-Day Weather Forecast

Advertisements
Track Severe Weather on mobile